BGO weather

Bergen Airport Flesland
Bergen, Hordaland, Norway

Public forecast

Using degrees Celsius for public forecast. Weather courtesy of forecast.io.

Current aviation weather report (METAR) for Bergen Airport Flesland

Retrieved 2019/10/19 02:50 UTC (14 minutes ago):

ENBR 190250Z 01004KT CAVOK 06/04 Q0995 RMK WIND 1200FT 04011KT

Aviation forecast (TAF) for Bergen Airport Flesland

Retrieved 2019-10-19 00:57 UTC (2 hours ago):

TAF ENBR 182300Z 1900/1924 VRB05KT 9999 FEW025 BKN060